Time;durP1;ratioP1;P1;durP2;ratioP2;P2;SDS_P1;SDS_P2;PMS_P1;PMS_P2;Temp;Humidity;BMP_temperature;BMP_pressure;BME280_temperature;BME280_humidity;BME280_pressure;Samples;Min_cycle;Max_cycle;Signal;HPM_P1;HPM_P2
2022/06/06 00:01:15;;;;;;;7.10;5.30;;;17.70;77.70;;;;;;9180365;19;20026;-67
2022/06/06 00:04:24;;;;;;;12.60;7.13;;;17.70;78.00;;;;;;9180312;19;20018;-66
2022/06/06 00:07:29;;;;;;;15.43;10.25;;;17.60;78.00;;;;;;9179082;19;20460;-66
2022/06/06 00:10:35;;;;;;;13.30;9.02;;;17.60;77.80;;;;;;9181047;19;20010;-66
2022/06/06 00:13:41;;;;;;;15.80;9.98;;;17.60;78.00;;;;;;9181406;19;20039;-66
2022/06/06 00:16:47;;;;;;;14.25;9.38;;;17.60;78.00;;;;;;9181837;19;20100;-66
2022/06/06 00:19:54;;;;;;;16.50;10.68;;;17.60;78.00;;;;;;9181550;19;20010;-66
2022/06/06 00:23:00;;;;;;;12.93;9.75;;;17.60;78.20;;;;;;9178285;19;20011;-65
2022/06/06 00:26:08;;;;;;;16.85;11.57;;;17.50;78.10;;;;;;9176342;19;20018;-66
2022/06/06 00:29:17;;;;;;;21.20;12.30;;;17.50;78.10;;;;;;9179403;19;20487;-66
2022/06/06 00:35:43;;;;;;;28.60;16.23;;;17.50;78.10;;;;;;9179601;19;20021;-66
2022/06/06 00:38:48;;;;;;;30.73;17.70;;;17.50;78.20;;;;;;9181120;19;20010;-65
2022/06/06 00:41:57;;;;;;;33.97;18.85;;;17.40;78.00;;;;;;9179446;19;20026;-65
2022/06/06 00:45:21;;;;;;;30.92;18.08;;;17.40;78.10;;;;;;9178926;19;20018;-66
2022/06/06 00:48:27;;;;;;;;;;;17.40;78.50;;;;;;9180621;19;20055;-66
2022/06/06 00:51:35;;;;;;;36.38;18.63;;;17.40;78.00;;;;;;9188239;19;19929;-66
2022/06/06 00:54:41;;;;;;;30.38;17.65;;;17.40;78.00;;;;;;9188939;19;20018;-66
2022/06/06 00:57:51;;;;;;;32.88;17.52;;;17.40;78.60;;;;;;9186743;19;20049;-66
2022/06/06 01:00:57;;;;;;;27.45;16.45;;;17.30;78.10;;;;;;9187985;19;20014;-66
2022/06/06 01:04:04;;;;;;;31.35;17.98;;;17.30;78.00;;;;;;9183389;19;20071;-68
2022/06/06 01:07:13;;;;;;;34.83;19.77;;;17.30;78.10;;;;;;9184877;19;20014;-66
2022/06/06 01:10:19;;;;;;;31.55;18.38;;;17.20;78.20;;;;;;9183908;19;20018;-66
2022/06/06 01:13:26;;;;;;;32.58;19.50;;;17.20;78.20;;;;;;9184068;19;20385;-65
2022/06/06 01:16:40;;;;;;;39.00;20.35;;;17.20;78.20;;;;;;9186967;19;20011;-65
2022/06/06 01:20:13;;;;;;;40.85;21.95;;;17.20;78.40;;;;;;9183995;19;20377;-66
2022/06/06 01:23:56;;;;;;;42.60;23.00;;;17.10;78.60;;;;;;9181432;19;20317;-65
2022/06/06 01:27:18;;;;;;;49.80;24.10;;;17.10;78.60;;;;;;9184973;19;20361;-66
2022/06/06 01:30:30;;;;;;;44.38;23.80;;;17.10;78.40;;;;;;9184071;19;20103;-66
2022/06/06 01:33:51;;;;;;;43.85;21.15;;;17.10;78.40;;;;;;9183315;19;20014;-65
2022/06/06 01:36:58;;;;;;;47.97;22.85;;;17.10;78.60;;;;;;9185068;19;20021;-66
2022/06/06 01:40:06;;;;;;;37.78;20.42;;;17.00;78.30;;;;;;9185422;19;20011;-66
2022/06/06 01:43:14;;;;;;;38.55;19.40;;;17.00;78.30;;;;;;9180966;19;20022;-65
2022/06/06 01:46:27;;;;;;;40.38;19.13;;;17.00;78.40;;;;;;9180548;19;20019;-65
2022/06/06 01:49:35;;;;;;;36.92;18.15;;;17.00;78.50;;;;;;9183535;19;20018;-65
2022/06/06 01:53:01;;;;;;;40.70;18.30;;;16.90;78.30;;;;;;9183692;19;20021;-66
2022/06/06 01:56:09;;;;;;;39.50;18.23;;;16.90;78.50;;;;;;9181104;19;20023;-66
2022/06/06 01:59:14;;;;;;;40.38;19.65;;;16.90;78.40;;;;;;9180721;19;20019;-65
2022/06/06 02:02:22;;;;;;;43.63;20.67;;;16.90;78.40;;;;;;9177057;19;20483;-66
2022/06/06 02:05:27;;;;;;;45.70;21.10;;;16.80;78.40;;;;;;9177006;19;20014;-66
2022/06/06 02:08:33;;;;;;;40.53;19.95;;;16.70;78.40;;;;;;9176005;19;20014;-66
2022/06/06 02:11:38;;;;;;;41.92;19.40;;;16.70;78.50;;;;;;9173387;19;20026;-65
2022/06/06 02:14:43;;;;;;;41.22;19.70;;;16.70;78.40;;;;;;9174387;19;20029;-66
2022/06/06 02:17:51;;;;;;;39.25;20.60;;;16.70;78.50;;;;;;9178353;19;20830;-66
2022/06/06 02:20:57;;;;;;;36.22;18.58;;;16.70;78.60;;;;;;9180610;19;20468;-65
2022/06/06 02:24:02;;;;;;;38.80;19.77;;;16.70;79.10;;;;;;9178436;19;20011;-66
2022/06/06 02:27:09;;;;;;;34.67;17.67;;;16.60;78.40;;;;;;9183854;19;20109;-66
2022/06/06 02:30:18;;;;;;;38.03;18.42;;;16.60;78.50;;;;;;9182127;19;20373;-66
2022/06/06 02:33:26;;;;;;;29.85;18.20;;;16.50;78.50;;;;;;9184030;19;20500;-66
2022/06/06 02:36:31;;;;;;;35.17;18.33;;;16.50;78.40;;;;;;9184165;19;20107;-66
2022/06/06 02:39:36;;;;;;;31.80;17.25;;;16.50;78.40;;;;;;9185033;19;20018;-65
2022/06/06 02:42:41;;;;;;;37.47;19.13;;;16.50;78.50;;;;;;9183085;19;20010;-65
2022/06/06 02:45:48;;;;;;;36.05;18.63;;;16.40;78.40;;;;;;9181971;19;20010;-65
2022/06/06 02:48:56;;;;;;;34.75;18.10;;;16.40;78.40;;;;;;9183221;19;20021;-66
2022/06/06 02:52:01;;;;;;;34.65;18.27;;;16.40;78.40;;;;;;9181302;19;20010;-66
2022/06/06 02:55:08;;;;;;;39.97;18.42;;;16.40;78.40;;;;;;9181506;19;20356;-65
2022/06/06 02:58:13;;;;;;;37.65;20.15;;;16.30;78.50;;;;;;9182907;19;20044;-65
2022/06/06 03:01:18;;;;;;;36.45;18.13;;;16.30;78.50;;;;;;9181544;19;20512;-66
2022/06/06 03:04:26;;;;;;;30.88;17.08;;;16.30;78.50;;;;;;9180770;19;20025;-65
2022/06/06 03:07:36;;;;;;;34.05;17.02;;;16.30;78.50;;;;;;9179820;19;20040;-65
2022/06/06 03:10:56;;;;;;;32.53;15.98;;;16.30;78.60;;;;;;9182251;19;20021;-65
2022/06/06 03:14:27;;;;;;;33.85;17.30;;;16.20;78.50;;;;;;9180242;19;20022;-65
2022/06/06 03:21:16;;;;;;;35.08;16.88;;;16.20;78.40;;;;;;9180136;19;20006;-65
2022/06/06 03:24:33;;;;;;;27.60;14.15;;;16.20;78.40;;;;;;9174965;19;20018;-65
2022/06/06 03:27:47;;;;;;;31.90;15.48;;;16.20;78.30;;;;;;9179475;19;20032;-66
2022/06/06 03:31:07;;;;;;;25.00;14.65;;;16.20;78.30;;;;;;9181060;19;20014;-65
2022/06/06 03:34:21;;;;;;;27.58;13.85;;;16.20;78.30;;;;;;9179130;19;20024;-65
2022/06/06 03:37:34;;;;;;;22.85;12.23;;;16.20;78.30;;;;;;9181236;19;20025;-65
2022/06/06 03:40:48;;;;;;;26.92;13.23;;;16.20;78.40;;;;;;9179281;19;20019;-65
2022/06/06 03:43:59;;;;;;;26.50;12.87;;;16.20;78.30;;;;;;9180421;19;20014;-65
2022/06/06 03:47:17;;;;;;;20.02;11.80;;;16.10;78.20;;;;;;9180572;19;20018;-66
2022/06/06 03:50:38;;;;;;;29.80;12.80;;;16.10;78.30;;;;;;9179663;19;20045;-65
2022/06/06 03:53:57;;;;;;;23.88;12.45;;;16.10;78.30;;;;;;9179110;19;20523;-66
2022/06/06 03:57:09;;;;;;;24.55;11.82;;;16.10;78.20;;;;;;9179447;19;20344;-65
2022/06/06 04:00:16;;;;;;;23.02;11.85;;;16.20;78.20;;;;;;9179191;19;20022;-66
2022/06/06 04:03:22;;;;;;;27.55;12.98;;;16.20;78.20;;;;;;9178535;19;20014;-65
2022/06/06 04:06:29;;;;;;;22.67;12.90;;;16.20;78.20;;;;;;9178725;19;20022;-65
2022/06/06 04:09:37;;;;;;;30.30;13.98;;;16.10;78.20;;;;;;9179816;19;20026;-66
2022/06/06 04:13:02;;;;;;;30.85;15.50;;;16.10;78.20;;;;;;9178484;19;20018;-66
2022/06/06 04:16:23;;;;;;;31.67;16.10;;;16.10;78.30;;;;;;9175746;19;20112;-66
2022/06/06 04:19:37;;;;;;;30.67;17.08;;;16.10;78.20;;;;;;9178082;19;20026;-66
2022/06/06 04:22:58;;;;;;;35.95;18.15;;;16.10;78.20;;;;;;9179724;19;20010;-66
2022/06/06 04:26:23;;;;;;;33.83;17.35;;;16.10;78.30;;;;;;9182955;19;20021;-66
2022/06/06 04:29:41;;;;;;;38.15;18.30;;;16.10;78.30;;;;;;9186794;19;20011;-66
2022/06/06 04:32:59;;;;;;;37.58;18.33;;;16.10;78.30;;;;;;9189286;19;20093;-66
2022/06/06 04:36:12;;;;;;;40.72;19.33;;;16.10;78.30;;;;;;9187379;19;20479;-66
2022/06/06 04:39:27;;;;;;;39.67;18.63;;;16.10;78.30;;;;;;9186454;19;20094;-66
2022/06/06 04:42:44;;;;;;;38.65;17.52;;;16.10;78.30;;;;;;9186719;19;20018;-66
2022/06/06 04:45:55;;;;;;;38.13;18.95;;;16.10;78.30;;;;;;9184113;19;20019;-66
2022/06/06 04:49:02;;;;;;;35.85;18.58;;;16.10;78.30;;;;;;9177082;19;20014;-66
2022/06/06 04:52:08;;;;;;;39.92;19.65;;;16.10;78.30;;;;;;9181436;19;20018;-66
2022/06/06 04:55:17;;;;;;;34.63;18.77;;;16.10;78.40;;;;;;9181431;19;20848;-66
2022/06/06 04:58:28;;;;;;;33.78;18.08;;;16.10;78.40;;;;;;9183865;19;20010;-66
2022/06/06 05:01:35;;;;;;;41.50;19.17;;;16.10;78.40;;;;;;9183373;19;20364;-66
2022/06/06 05:04:40;;;;;;;35.28;18.55;;;16.10;78.40;;;;;;9183205;19;20015;-65
2022/06/06 05:08:11;;;;;;;38.50;17.55;;;16.10;78.40;;;;;;9178692;19;20661;-66
2022/06/06 05:11:30;;;;;;;39.50;18.98;;;16.20;78.60;;;;;;9186350;19;20037;-66
2022/06/06 05:15:08;;;;;;;39.95;18.42;;;16.20;78.50;;;;;;9185072;19;20037;-66
2022/06/06 05:18:31;;;;;;;40.08;19.35;;;16.20;78.50;;;;;;9185237;19;20015;-66
2022/06/06 05:21:52;;;;;;;43.80;20.37;;;16.20;78.50;;;;;;9185089;19;20033;-66
2022/06/06 05:25:11;;;;;;;41.90;19.25;;;16.20;78.40;;;;;;9180495;19;20030;-66
2022/06/06 05:28:43;;;;;;;32.20;16.92;;;16.20;78.40;;;;;;9186745;19;20017;-66
2022/06/06 05:32:06;;;;;;;34.75;17.08;;;16.20;78.50;;;;;;9184504;19;20480;-65
2022/06/06 05:35:20;;;;;;;40.40;16.73;;;16.30;78.50;;;;;;9181665;19;20070;-66
2022/06/06 05:38:42;;;;;;;31.75;15.88;;;16.30;78.40;;;;;;9185728;19;20033;-66
2022/06/06 05:42:14;;;;;;;39.33;16.67;;;16.30;78.30;;;;;;9179817;19;20019;-66
2022/06/06 05:45:28;;;;;;;30.88;15.55;;;16.30;78.40;;;;;;9178835;19;20021;-66
2022/06/06 05:48:57;;;;;;;37.67;16.23;;;16.30;78.40;;;;;;9182003;19;20007;-66
2022/06/06 05:52:17;;;;;;;38.95;17.17;;;16.40;78.50;;;;;;9179176;19;20018;-67
2022/06/06 05:55:37;;;;;;;44.10;17.63;;;16.40;78.40;;;;;;9180316;19;20521;-66
2022/06/06 05:58:57;;;;;;;37.85;17.65;;;16.40;78.40;;;;;;9180103;19;20492;-66
2022/06/06 06:02:17;;;;;;;38.83;16.83;;;16.50;78.50;;;;;;9180668;19;20041;-66
2022/06/06 06:05:35;;;;;;;35.33;16.70;;;16.50;79.10;;;;;;9180007;19;20022;-66
2022/06/06 06:09:01;;;;;;;39.75;18.10;;;16.50;78.50;;;;;;9176349;19;20014;-66
2022/06/06 06:12:20;;;;;;;41.25;20.02;;;16.60;78.60;;;;;;9176137;19;20011;-66
2022/06/06 06:15:31;;;;;;;42.80;18.00;;;16.60;78.50;;;;;;9178191;19;20066;-66
2022/06/06 06:18:43;;;;;;;43.22;17.60;;;16.60;78.50;;;;;;9176983;19;20026;-66
2022/06/06 06:21:56;;;;;;;39.58;18.95;;;16.60;78.50;;;;;;9175619;19;20025;-66
2022/06/06 06:25:04;;;;;;;41.67;18.85;;;16.60;78.60;;;;;;9174006;19;20074;-66
2022/06/06 06:28:11;;;;;;;43.83;19.25;;;16.70;78.60;;;;;;9178091;19;20014;-66
2022/06/06 06:31:50;;;;;;;51.25;22.27;;;16.70;78.60;;;;;;9179080;19;20038;-65
2022/06/06 06:35:06;;;;;;;52.88;22.40;;;16.60;78.80;;;;;;9177912;19;20070;-68
2022/06/06 06:38:39;;;;;;;36.33;18.40;;;16.60;78.70;;;;;;9178985;19;20519;-66
2022/06/06 06:42:00;;;;;;;40.47;19.83;;;16.60;78.80;;;;;;9176905;19;20025;-66
2022/06/06 06:45:13;;;;;;;41.88;19.23;;;16.60;78.70;;;;;;9174423;19;20094;-66
2022/06/06 06:48:25;;;;;;;43.58;19.60;;;16.60;78.70;;;;;;9170937;19;20010;-66
2022/06/06 06:51:43;;;;;;;37.08;19.02;;;16.60;78.80;;;;;;9177023;19;20026;-66
2022/06/06 06:55:08;;;;;;;38.00;19.33;;;16.70;79.00;;;;;;9176014;19;20372;-66
2022/06/06 06:58:34;;;;;;;39.03;17.13;;;16.60;78.90;;;;;;9175576;19;20019;-66
2022/06/06 07:08:32;;;;;;;35.63;17.58;;;16.70;78.90;;;;;;9178478;19;20815;-66
2022/06/06 07:09:04;;;;;;;34.92;16.63;;;16.80;78.90;;;;;;9174624;19;20528;-66
2022/06/06 07:12:25;;;;;;;27.43;14.77;;;16.90;78.70;;;;;;9174986;19;20019;-66
2022/06/06 07:15:39;;;;;;;28.05;14.60;;;17.10;78.70;;;;;;9177224;19;20015;-66
2022/06/06 07:18:47;;;;;;;28.52;14.18;;;17.20;78.50;;;;;;9178599;19;20361;-66
2022/06/06 07:21:55;;;;;;;30.63;14.75;;;17.30;78.40;;;;;;9179828;19;20010;-66
2022/06/06 07:25:01;;;;;;;25.48;13.93;;;17.40;78.30;;;;;;9174934;19;20017;-67
2022/06/06 07:28:11;;;;;;;22.92;12.85;;;17.50;78.10;;;;;;9180976;19;20015;-67
2022/06/06 07:31:25;;;;;;;18.15;10.77;;;17.60;77.90;;;;;;9179234;19;20022;-66
2022/06/06 07:34:52;;;;;;;17.00;10.15;;;17.60;77.70;;;;;;9177732;19;20057;-66
2022/06/06 07:38:12;;;;;;;21.17;10.27;;;17.70;77.40;;;;;;9175587;19;20527;-66
2022/06/06 07:41:29;;;;;;;20.23;9.50;;;17.80;77.40;;;;;;9173942;19;20014;-66
2022/06/06 07:45:05;;;;;;;14.90;7.57;;;17.80;77.00;;;;;;9175454;19;20014;-66
2022/06/06 07:48:28;;;;;;;16.45;7.28;;;17.80;76.70;;;;;;9176346;19;20503;-66
2022/06/06 07:51:43;;;;;;;12.40;6.53;;;17.90;76.70;;;;;;9175948;19;20098;-66
2022/06/06 07:55:03;;;;;;;12.00;6.28;;;17.90;76.50;;;;;;9173568;19;20011;-67
2022/06/06 07:58:15;;;;;;;9.10;4.82;;;17.90;76.50;;;;;;9178219;19;20026;-66
2022/06/06 08:01:30;;;;;;;8.68;4.47;;;18.00;76.30;;;;;;9184761;19;20014;-66
2022/06/06 08:04:48;;;;;;;11.85;4.55;;;18.10;76.10;;;;;;9182313;19;20081;-67
2022/06/06 08:08:02;;;;;;;9.20;4.38;;;18.10;75.80;;;;;;9183296;19;20022;-67
2022/06/06 08:11:15;;;;;;;8.52;3.80;;;18.20;75.60;;;;;;9182731;19;20344;-66
2022/06/06 08:14:34;;;;;;;7.97;4.93;;;18.30;75.60;;;;;;9185149;19;20643;-67
2022/06/06 08:18:10;;;;;;;12.93;6.10;;;18.30;75.30;;;;;;9179909;19;20014;-67
2022/06/06 08:21:30;;;;;;;10.63;5.63;;;18.30;75.10;;;;;;9180451;19;20018;-67
2022/06/06 08:24:40;;;;;;;16.40;6.23;;;18.40;75.10;;;;;;9176219;19;20768;-67
2022/06/06 08:27:56;;;;;;;10.00;6.13;;;18.50;74.90;;;;;;9182940;19;20026;-67
2022/06/06 08:31:01;;;;;;;8.95;6.00;;;18.60;75.00;;;;;;9183152;19;20500;-67
2022/06/06 08:34:09;;;;;;;8.20;4.85;;;18.70;74.90;;;;;;9178072;19;20078;-66
2022/06/06 08:37:38;;;;;;;11.32;4.68;;;18.70;75.20;;;;;;9180852;19;20015;-67
2022/06/06 08:40:58;;;;;;;14.32;3.50;;;18.80;74.20;;;;;;9181625;19;20022;-67
2022/06/06 08:44:08;;;;;;;9.00;3.30;;;18.90;74.10;;;;;;9179576;19;20018;-66
2022/06/06 08:47:21;;;;;;;9.50;3.05;;;19.00;74.10;;;;;;9180388;19;20014;-66
2022/06/06 08:50:54;;;;;;;5.63;2.60;;;19.10;73.70;;;;;;9178981;19;20476;-67
2022/06/06 08:54:25;;;;;;;9.07;2.70;;;19.20;73.40;;;;;;9181985;19;20033;-67
2022/06/06 08:57:49;;;;;;;5.70;2.83;;;19.30;73.20;;;;;;9181966;19;20029;-67
2022/06/06 09:01:03;;;;;;;6.25;2.70;;;19.40;72.90;;;;;;9171538;19;20019;-67
2022/06/06 09:04:51;;;;;;;9.82;3.92;;;19.40;72.70;;;;;;9169905;19;20034;-67
2022/06/06 09:08:25;;;;;;;8.55;3.75;;;19.40;72.30;;;;;;9170919;19;20026;-67
2022/06/06 09:12:11;;;;;;;8.05;3.30;;;19.50;72.20;;;;;;9173368;19;20563;-67
2022/06/06 09:15:38;;;;;;;6.55;3.40;;;19.50;72.00;;;;;;9174946;19;20018;-67
2022/06/06 09:19:15;;;;;;;8.27;2.67;;;19.50;71.80;;;;;;9174635;19;20021;-67
2022/06/06 09:22:48;;;;;;;8.05;3.22;;;19.50;71.60;;;;;;9176213;19;20129;-68
2022/06/06 09:26:02;;;;;;;7.90;2.80;;;19.50;71.50;;;;;;9170937;19;20491;-67
2022/06/06 09:29:37;;;;;;;6.68;3.13;;;19.50;71.50;;;;;;9171770;19;20021;-67
2022/06/06 09:33:22;;;;;;;6.72;2.30;;;19.50;71.20;;;;;;9172767;19;20342;-67
2022/06/06 09:36:46;;;;;;;4.43;2.38;;;19.40;71.00;;;;;;9171039;19;20019;-69
2022/06/06 09:39:58;;;;;;;4.53;2.00;;;19.40;70.80;;;;;;9173476;19;20105;-67
2022/06/06 09:43:11;;;;;;;3.22;1.67;;;19.50;70.80;;;;;;9171459;19;20023;-68
2022/06/06 09:46:49;;;;;;;3.88;1.77;;;19.50;70.60;;;;;;9170886;19;20019;-67
2022/06/06 09:50:31;;;;;;;5.40;1.58;;;19.60;70.40;;;;;;9169423;19;20034;-67
2022/06/06 10:01:50;;;;;;;6.55;2.40;;;19.60;69.90;;;;;;9172890;19;20018;-68
2022/06/06 10:05:34;;;;;;;7.13;2.85;;;19.60;69.80;;;;;;9174243;19;20022;-69
2022/06/06 10:09:09;;;;;;;3.60;2.50;;;19.60;69.80;;;;;;9171903;19;20030;-68
2022/06/06 10:12:53;;;;;;;7.70;2.33;;;19.70;69.80;;;;;;9176890;19;20026;-68
2022/06/06 10:16:16;;;;;;;11.25;2.58;;;19.80;69.60;;;;;;9173261;19;20025;-68
2022/06/06 10:19:48;;;;;;;4.30;1.85;;;19.90;69.60;;;;;;9171042;19;20124;-68
2022/06/06 10:23:26;;;;;;;5.75;2.28;;;20.10;69.20;;;;;;9169524;19;20034;-68
2022/06/06 10:26:58;;;;;;;3.83;1.92;;;20.20;68.80;;;;;;9164360;19;20030;-67
2022/06/06 10:30:14;;;;;;;11.20;2.33;;;20.30;68.70;;;;;;9176548;19;20018;-68
2022/06/06 10:33:52;;;;;;;6.32;1.90;;;20.40;68.60;;;;;;9172813;19;20018;-67
2022/06/06 10:37:27;;;;;;;8.70;1.60;;;20.60;68.40;;;;;;9173788;19;20019;-66
2022/06/06 10:40:53;;;;;;;3.88;1.60;;;20.70;68.00;;;;;;9174522;19;20037;-69
2022/06/06 10:44:21;;;;;;;4.82;1.50;;;20.80;67.70;;;;;;9175542;19;20397;-67
2022/06/06 10:47:46;;;;;;;5.35;1.63;;;20.90;67.30;;;;;;9171361;19;20022;-70
2022/06/06 10:55:15;;;;;;;2.92;1.30;;;21.00;66.80;;;;;;9171675;19;20136;-69
2022/06/06 10:59:12;;;;;;;4.50;1.23;;;21.10;66.80;;;;;;9166163;19;20025;-68
2022/06/06 11:02:50;;;;;;;2.88;1.60;;;21.20;66.70;;;;;;9166479;19;20015;-68
2022/06/06 11:06:43;;;;;;;2.58;1.52;;;21.30;66.60;;;;;;9166047;19;20026;-69
2022/06/06 11:10:21;;;;;;;6.13;1.70;;;21.40;66.50;;;;;;9164621;19;20037;-69
2022/06/06 11:13:48;;;;;;;1.88;1.25;;;21.50;66.40;;;;;;9162869;19;20014;-68
2022/06/06 11:17:22;;;;;;;3.20;1.63;;;21.60;66.30;;;;;;9164451;19;20496;-69
2022/06/06 11:21:04;;;;;;;4.32;1.52;;;21.70;65.90;;;;;;9164160;19;20582;-67
2022/06/06 11:24:23;;;;;;;1.70;1.02;;;21.80;65.50;;;;;;9165374;19;20015;-67
2022/06/06 11:27:48;;;;;;;5.95;1.50;;;21.90;65.50;;;;;;9171402;19;20030;-66
2022/06/06 11:31:18;;;;;;;5.43;1.30;;;22.00;65.20;;;;;;9168331;19;20029;-67
2022/06/06 11:35:09;;;;;;;1.92;1.08;;;22.10;64.80;;;;;;9166064;19;20022;-67
2022/06/06 11:38:40;;;;;;;5.45;1.33;;;22.10;64.70;;;;;;9168795;19;20002;-67
2022/06/06 11:42:06;;;;;;;1.40;1.05;;;22.20;64.70;;;;;;9168697;19;20053;-67
2022/06/06 11:45:36;;;;;;;4.68;1.20;;;22.20;64.60;;;;;;9168248;19;20014;-67
2022/06/06 11:49:13;;;;;;;2.95;1.27;;;22.30;64.30;;;;;;9165131;19;20029;-67
2022/06/06 11:52:50;;;;;;;3.25;1.42;;;22.30;64.20;;;;;;9167352;19;20022;-67
2022/06/06 11:56:11;;;;;;;2.45;1.30;;;22.40;64.00;;;;;;9169099;19;20377;-67
2022/06/06 11:59:51;;;;;;;5.68;1.55;;;22.40;63.80;;;;;;9165942;19;20082;-65
2022/06/06 12:03:22;;;;;;;8.23;1.92;;;22.40;63.40;;;;;;9173554;19;20096;-67
2022/06/06 12:07:09;;;;;;;3.60;1.55;;;22.40;63.60;;;;;;9172443;19;20037;-67
2022/06/06 12:10:22;;;;;;;8.65;2.00;;;22.30;63.60;;;;;;9170765;19;20018;-66
2022/06/06 12:13:51;;;;;;;4.63;1.83;;;22.30;63.90;;;;;;9163310;19;20472;-67
2022/06/06 12:17:06;;;;;;;2.90;1.30;;;22.30;63.70;;;;;;9167883;19;20030;-66
2022/06/06 12:20:57;;;;;;;6.07;1.63;;;22.30;63.70;;;;;;9172064;19;20432;-69
2022/06/06 12:24:33;;;;;;;3.20;1.30;;;22.30;63.40;;;;;;9169141;19;20499;-66
2022/06/06 12:27:55;;;;;;;3.78;1.40;;;22.40;63.30;;;;;;9173375;19;20022;-66
2022/06/06 12:31:31;;;;;;;2.80;1.00;;;22.40;63.10;;;;;;9173445;19;20017;-67
2022/06/06 12:34:43;;;;;;;3.33;1.40;;;22.30;62.80;;;;;;9169752;19;20103;-67
2022/06/06 12:38:04;;;;;;;3.95;1.40;;;22.30;62.90;;;;;;9173652;19;20015;-67
2022/06/06 12:41:21;;;;;;;1.75;1.15;;;22.20;62.90;;;;;;9172039;19;20372;-67
2022/06/06 12:44:52;;;;;;;2.58;0.90;;;22.10;62.60;;;;;;9173423;19;20022;-68
2022/06/06 12:48:11;;;;;;;2.10;1.10;;;22.00;62.50;;;;;;9178867;19;20022;-67
2022/06/06 12:51:23;;;;;;;2.00;1.00;;;22.00;62.70;;;;;;9182607;19;20104;-67
2022/06/06 12:58:27;;;;;;;1.92;1.15;;;21.90;62.50;;;;;;9184113;19;20006;-67
2022/06/06 13:01:42;;;;;;;3.75;0.95;;;21.80;62.50;;;;;;9180697;19;20017;-67
2022/06/06 13:05:02;;;;;;;3.67;1.10;;;21.70;62.50;;;;;;9181643;19;20007;-68
2022/06/06 13:08:30;;;;;;;1.45;0.80;;;21.60;62.40;;;;;;9176669;19;20023;-67
2022/06/06 13:11:49;;;;;;;2.85;1.00;;;21.60;62.30;;;;;;9177642;19;20026;-68
2022/06/06 13:15:16;;;;;;;3.47;1.08;;;21.50;62.30;;;;;;9176302;19;20017;-67
2022/06/06 13:18:40;;;;;;;2.38;1.00;;;21.50;62.20;;;;;;9181478;19;20034;-68
2022/06/06 13:21:59;;;;;;;1.83;1.02;;;21.50;62.20;;;;;;9181109;19;20022;-67
2022/06/06 13:25:20;;;;;;;2.15;1.00;;;21.50;62.30;;;;;;9178242;19;20034;-67
2022/06/06 13:28:29;;;;;;;4.70;0.90;;;21.50;62.00;;;;;;9177590;19;20021;-66
2022/06/06 13:31:53;;;;;;;2.90;1.10;;;21.50;62.00;;;;;;9179073;19;20018;-67
2022/06/06 13:35:16;;;;;;;1.83;0.95;;;21.50;61.90;;;;;;9179440;19;20026;-66
2022/06/06 13:38:36;;;;;;;3.17;0.95;;;21.50;61.80;;;;;;9177505;19;20295;-68
2022/06/06 13:41:52;;;;;;;3.00;1.15;;;21.50;61.80;;;;;;9177930;19;20779;-67
2022/06/06 13:45:16;;;;;;;3.28;1.20;;;21.50;61.90;;;;;;9179911;19;20015;-67
2022/06/06 13:48:36;;;;;;;;;;;21.50;61.80;;;;;;9179703;19;20021;-68
2022/06/06 13:51:52;;;;;;;3.03;1.15;;;21.40;62.30;;;;;;9177888;19;19935;-68
2022/06/06 13:54:57;;;;;;;6.53;1.00;;;21.40;62.10;;;;;;9179149;19;20023;-69
2022/06/06 13:58:24;;;;;;;4.45;1.25;;;21.30;62.00;;;;;;9178888;19;20010;-67
2022/06/06 14:01:41;;;;;;;2.90;0.95;;;21.20;61.90;;;;;;9180700;19;20372;-67
2022/06/06 14:05:13;;;;;;;1.75;1.10;;;21.10;62.00;;;;;;9180356;19;20026;-68
2022/06/06 14:08:20;;;;;;;9.02;1.38;;;21.00;62.20;;;;;;9176931;19;20443;-67
2022/06/06 14:11:51;;;;;;;1.50;1.08;;;20.90;62.40;;;;;;9176164;19;20010;-67
2022/06/06 14:15:04;;;;;;;3.42;1.00;;;20.80;62.30;;;;;;9180763;19;20015;-68
2022/06/06 14:18:13;;;;;;;7.72;1.33;;;20.70;62.60;;;;;;9185363;19;20010;-68
2022/06/06 14:21:30;;;;;;;4.20;1.20;;;20.60;62.70;;;;;;9184562;19;20637;-67
2022/06/06 14:24:37;;;;;;;3.95;1.00;;;20.60;62.80;;;;;;9178210;19;20014;-68
2022/06/06 14:27:43;;;;;;;2.50;0.98;;;20.50;62.90;;;;;;9184173;19;20103;-67
2022/06/06 14:30:48;;;;;;;3.83;1.13;;;20.40;62.90;;;;;;9184680;19;20019;-67
2022/06/06 14:33:57;;;;;;;2.88;1.23;;;20.40;63.00;;;;;;9182257;19;20078;-67
2022/06/06 14:37:17;;;;;;;4.97;1.15;;;20.30;63.10;;;;;;9180300;19;20029;-68
2022/06/06 14:40:40;;;;;;;2.45;1.23;;;20.30;63.30;;;;;;9177751;19;20014;-67
2022/06/06 14:43:53;;;;;;;5.55;1.10;;;20.20;63.20;;;;;;9177972;19;20022;-67
2022/06/06 14:47:12;;;;;;;3.30;1.40;;;20.10;63.30;;;;;;9176340;19;20018;-65
2022/06/06 14:54:02;;;;;;;1.88;1.35;;;20.00;63.50;;;;;;9170680;19;20010;-66
2022/06/06 14:57:12;;;;;;;5.05;1.33;;;20.00;63.50;;;;;;9175414;19;20018;-67
2022/06/06 15:00:33;;;;;;;1.67;1.13;;;19.90;63.60;;;;;;9175475;19;20010;-67
2022/06/06 15:03:44;;;;;;;4.53;1.45;;;19.90;63.60;;;;;;9175976;19;20022;-67
2022/06/06 15:06:53;;;;;;;4.05;0.93;;;19.90;64.40;;;;;;9172593;19;20508;-68
2022/06/06 15:10:03;;;;;;;4.45;1.25;;;19.90;63.80;;;;;;9176753;19;20032;-69
2022/06/06 15:13:09;;;;;;;4.03;1.25;;;19.90;63.90;;;;;;9175322;19;20060;-66
2022/06/06 15:16:20;;;;;;;5.38;1.17;;;19.90;63.90;;;;;;9177779;19;20026;-68
2022/06/06 15:19:33;;;;;;;4.32;1.35;;;19.80;63.90;;;;;;9175324;19;20488;-67
2022/06/06 15:22:43;;;;;;;6.63;1.30;;;19.80;63.90;;;;;;9177577;19;20361;-68
2022/06/06 15:25:57;;;;;;;5.28;1.25;;;19.80;63.90;;;;;;9172274;19;20021;-70
2022/06/06 15:29:28;;;;;;;1.95;1.10;;;19.70;63.80;;;;;;9177553;19;20049;-70
2022/06/06 15:32:40;;;;;;;5.38;1.10;;;19.60;63.80;;;;;;9174835;19;20022;-68
2022/06/06 15:35:58;;;;;;;4.50;1.10;;;19.60;64.10;;;;;;9175558;19;20023;-68
2022/06/06 15:39:20;;;;;;;3.80;1.15;;;19.60;64.50;;;;;;9175567;19;20070;-68
2022/06/06 15:42:35;;;;;;;3.38;1.08;;;19.50;64.60;;;;;;9174850;19;20010;-67
2022/06/06 15:45:54;;;;;;;4.15;1.77;;;19.30;64.80;;;;;;9172336;19;20131;-67
2022/06/06 15:49:10;;;;;;;7.05;1.55;;;19.20;65.10;;;;;;9174536;19;20006;-67
2022/06/06 15:52:32;;;;;;;2.40;1.83;;;19.10;65.30;;;;;;9172459;19;20019;-68
2022/06/06 15:56:06;;;;;;;4.82;1.60;;;19.00;65.60;;;;;;9170983;19;20019;-67
2022/06/06 15:59:41;;;;;;;5.03;1.88;;;18.80;65.70;;;;;;9167943;19;20377;-67
2022/06/06 16:02:51;;;;;;;4.00;2.00;;;18.70;66.10;;;;;;9171366;19;20015;-66
2022/06/06 16:05:59;;;;;;;3.58;2.10;;;18.60;66.10;;;;;;9167641;19;20025;-65
2022/06/06 16:09:14;;;;;;;2.50;2.28;;;18.50;66.40;;;;;;9166369;19;20019;-66
2022/06/06 16:12:35;;;;;;;6.15;2.45;;;18.40;66.80;;;;;;9170203;19;20026;-65
2022/06/06 16:15:51;;;;;;;3.72;2.05;;;18.30;67.00;;;;;;9173191;19;20018;-66
2022/06/06 16:19:01;;;;;;;4.00;2.22;;;18.20;67.30;;;;;;9168891;19;20014;-65
2022/06/06 16:22:15;;;;;;;7.80;2.72;;;18.10;67.40;;;;;;9181823;19;20019;-66
2022/06/06 16:25:24;;;;;;;4.85;2.95;;;18.10;67.70;;;;;;9177258;19;20106;-65
2022/06/06 16:28:34;;;;;;;5.20;2.08;;;18.00;68.00;;;;;;9182730;19;20013;-65
2022/06/06 16:31:44;;;;;;;6.45;2.33;;;18.00;68.30;;;;;;9181997;19;20026;-65
2022/06/06 16:34:49;;;;;;;2.85;1.40;;;17.90;68.50;;;;;;9181938;19;20023;-65
2022/06/06 16:38:09;;;;;;;3.63;2.10;;;17.90;68.50;;;;;;9181108;19;20010;-65
2022/06/06 16:48:50;;;;;;;1.42;0.70;;;17.60;69.00;;;;;;9179892;19;20007;-65
2022/06/06 16:52:04;;;;;;;2.60;1.05;;;17.50;69.00;;;;;;9183007;19;20015;-64
2022/06/06 16:55:20;;;;;;;2.10;0.90;;;17.30;69.00;;;;;;9180382;19;20015;-66
2022/06/06 16:58:48;;;;;;;2.75;1.10;;;17.20;69.30;;;;;;9181703;19;20029;-65
2022/06/06 17:02:20;;;;;;;1.20;0.90;;;17.10;69.50;;;;;;9183274;19;20040;-65
2022/06/06 17:09:16;;;;;;;1.77;0.50;;;16.90;70.00;;;;;;9177546;19;21094;-65
2022/06/06 17:12:27;;;;;;;2.17;0.60;;;16.80;69.90;;;;;;9182427;19;20018;-66
2022/06/06 17:15:35;;;;;;;4.28;0.65;;;16.70;70.00;;;;;;9181098;19;20362;-65
2022/06/06 17:18:40;;;;;;;1.33;0.90;;;16.70;70.70;;;;;;9181259;19;20348;-65
2022/06/06 17:21:50;;;;;;;0.80;0.75;;;16.60;70.30;;;;;;9180224;19;20029;-65
2022/06/06 17:25:01;;;;;;;1.00;0.80;;;16.50;70.60;;;;;;9175957;19;20562;-66
2022/06/06 17:28:20;;;;;;;2.45;0.90;;;16.40;70.80;;;;;;9179610;19;20010;-66
2022/06/06 17:31:39;;;;;;;0.90;0.75;;;16.40;71.10;;;;;;9176754;19;20018;-66
2022/06/06 17:34:58;;;;;;;0.80;0.68;;;16.40;71.20;;;;;;9179624;19;20014;-65
2022/06/06 17:38:37;;;;;;;1.00;0.77;;;16.40;71.10;;;;;;9181823;19;20350;-65
2022/06/06 17:42:17;;;;;;;1.85;0.90;;;16.30;71.60;;;;;;9180322;19;20011;-66